sensor_id;sensor_type;location;lat;lon;timestamp;pressure;altitude;pressure_sealevel;temperature;humidity
4528;BME280;62320;51.520;6.818;2023-11-21T00:04:38;100621.97;;;7.05;100.00
4528;BME280;62320;51.520;6.818;2023-11-21T00:14:39;100630.50;;;7.01;100.00
4528;BME280;62320;51.520;6.818;2023-11-21T00:24:41;100636.56;;;7.06;100.00
4528;BME280;62320;51.520;6.818;2023-11-21T00:34:42;100634.91;;;7.12;100.00
4528;BME280;62320;51.520;6.818;2023-11-21T00:44:44;100639.16;;;7.09;100.00
4528;BME280;62320;51.520;6.818;2023-11-21T00:54:46;100640.94;;;7.13;100.00
4528;BME280;62320;51.520;6.818;2023-11-21T01:04:49;100641.72;;;7.07;100.00
4528;BME280;62320;51.520;6.818;2023-11-21T01:14:50;100646.97;;;7.16;100.00
4528;BME280;62320;51.520;6.818;2023-11-21T01:24:53;100653.91;;;7.24;100.00
4528;BME280;62320;51.520;6.818;2023-11-21T01:34:55;100665.97;;;7.29;100.00
4528;BME280;62320;51.520;6.818;2023-11-21T01:44:57;100671.97;;;7.30;100.00
4528;BME280;62320;51.520;6.818;2023-11-21T01:54:59;100686.63;;;7.35;100.00
4528;BME280;62320;51.520;6.818;2023-11-21T02:05:01;100680.66;;;7.39;100.00
4528;BME280;62320;51.520;6.818;2023-11-21T02:15:03;100681.53;;;7.41;100.00
4528;BME280;62320;51.520;6.818;2023-11-21T02:25:10;100703.97;;;7.51;100.00
4528;BME280;62320;51.520;6.818;2023-11-21T02:35:12;100700.56;;;7.54;100.00
4528;BME280;62320;51.520;6.818;2023-11-21T02:45:14;100704.94;;;7.61;100.00
4528;BME280;62320;51.520;6.818;2023-11-21T02:55:18;100709.25;;;7.68;100.00
4528;BME280;62320;51.520;6.818;2023-11-21T03:05:19;100708.47;;;7.75;100.00
4528;BME280;62320;51.520;6.818;2023-11-21T03:15:35;100712.84;;;7.79;100.00
4528;BME280;62320;51.520;6.818;2023-11-21T03:25:37;100721.44;;;7.81;100.00
4528;BME280;62320;51.520;6.818;2023-11-21T03:35:38;100738.59;;;7.82;100.00
4528;BME280;62320;51.520;6.818;2023-11-21T03:45:43;100748.16;;;7.92;100.00
4528;BME280;62320;51.520;6.818;2023-11-21T03:55:44;100768.75;;;7.93;100.00
4528;BME280;62320;51.520;6.818;2023-11-21T04:05:46;100773.06;;;7.95;100.00
4528;BME280;62320;51.520;6.818;2023-11-21T04:15:48;100780.84;;;8.02;100.00
4528;BME280;62320;51.520;6.818;2023-11-21T04:25:49;100779.16;;;8.04;100.00
4528;BME280;62320;51.520;6.818;2023-11-21T04:35:51;100775.69;;;8.01;100.00
4528;BME280;62320;51.520;6.818;2023-11-21T04:45:52;100784.31;;;8.04;100.00
4528;BME280;62320;51.520;6.818;2023-11-21T04:55:54;100796.41;;;8.11;100.00
4528;BME280;62320;51.520;6.818;2023-11-21T05:05:56;100807.53;;;8.09;100.00
4528;BME280;62320;51.520;6.818;2023-11-21T05:15:57;100809.16;;;7.99;100.00
4528;BME280;62320;51.520;6.818;2023-11-21T05:25:59;100827.16;;;7.98;100.00
4528;BME280;62320;51.520;6.818;2023-11-21T05:36:01;100838.31;;;7.98;100.00
4528;BME280;62320;51.520;6.818;2023-11-21T05:46:02;100859.69;;;7.91;100.00
4528;BME280;62320;51.520;6.818;2023-11-21T05:56:04;100871.84;;;8.03;100.00
4528;BME280;62320;51.520;6.818;2023-11-21T06:06:05;100887.25;;;8.00;100.00
4528;BME280;62320;51.520;6.818;2023-11-21T06:16:08;100895.03;;;8.04;100.00
4528;BME280;62320;51.520;6.818;2023-11-21T06:26:10;100913.16;;;8.12;100.00
4528;BME280;62320;51.520;6.818;2023-11-21T06:36:11;100917.53;;;8.19;100.00
4528;BME280;62320;51.520;6.818;2023-11-21T06:46:13;100944.22;;;8.25;100.00
4528;BME280;62320;51.520;6.818;2023-11-21T06:56:18;100961.53;;;8.31;100.00
4528;BME280;62320;51.520;6.818;2023-11-21T07:06:20;100971.88;;;8.35;100.00
4528;BME280;62320;51.520;6.818;2023-11-21T07:16:21;100977.97;;;8.40;100.00
4528;BME280;62320;51.520;6.818;2023-11-21T07:26:25;100981.41;;;8.42;100.00
4528;BME280;62320;51.520;6.818;2023-11-21T07:36:27;100996.13;;;8.51;100.00
4528;BME280;62320;51.520;6.818;2023-11-21T07:46:28;101003.84;;;8.52;100.00
4528;BME280;62320;51.520;6.818;2023-11-21T07:56:30;101020.28;;;8.60;100.00
4528;BME280;62320;51.520;6.818;2023-11-21T08:06:32;101044.44;;;8.67;100.00
4528;BME280;62320;51.520;6.818;2023-11-21T08:16:34;101054.81;;;8.73;100.00
4528;BME280;62320;51.520;6.818;2023-11-21T08:26:35;101078.06;;;8.76;100.00
4528;BME280;62320;51.520;6.818;2023-11-21T08:36:43;101092.72;;;8.82;100.00
4528;BME280;62320;51.520;6.818;2023-11-21T08:46:45;101099.66;;;8.87;100.00
4528;BME280;62320;51.520;6.818;2023-11-21T08:56:48;101114.38;;;8.96;100.00
4528;BME280;62320;51.520;6.818;2023-11-21T09:06:49;101121.31;;;9.00;100.00
4528;BME280;62320;51.520;6.818;2023-11-21T09:16:50;101134.31;;;9.09;100.00
4528;BME280;62320;51.520;6.818;2023-11-21T09:26:52;101148.06;;;9.09;100.00
4528;BME280;62320;51.520;6.818;2023-11-21T09:36:54;101160.19;;;9.16;100.00
4528;BME280;62320;51.520;6.818;2023-11-21T09:46:59;101168.88;;;9.21;100.00
4528;BME280;62320;51.520;6.818;2023-11-21T09:57:01;101180.09;;;9.25;100.00
4528;BME280;62320;51.520;6.818;2023-11-21T10:07:04;101183.47;;;9.19;100.00
4528;BME280;62320;51.520;6.818;2023-11-21T10:17:10;101196.44;;;9.24;100.00
4528;BME280;62320;51.520;6.818;2023-11-21T10:27:13;101191.38;;;9.33;100.00
4528;BME280;62320;51.520;6.818;2023-11-21T10:37:15;101201.00;;;9.48;100.00
4528;BME280;62320;51.520;6.818;2023-11-21T10:47:19;101216.44;;;9.43;100.00
4528;BME280;62320;51.520;6.818;2023-11-21T10:57:21;101232.91;;;9.53;100.00
4528;BME280;62320;51.520;6.818;2023-11-21T11:07:27;101228.72;;;9.62;100.00
4528;BME280;62320;51.520;6.818;2023-11-21T11:17:29;101240.00;;;9.73;100.00
4528;BME280;62320;51.520;6.818;2023-11-21T11:37:51;101246.94;;;9.77;100.00
4528;BME280;62320;51.520;6.818;2023-11-21T11:47:56;101247.97;;;9.91;100.00
4528;BME280;62320;51.520;6.818;2023-11-21T11:57:58;101253.25;;;10.03;100.00
4528;BME280;62320;51.520;6.818;2023-11-21T12:08:06;101261.03;;;10.06;100.00
4528;BME280;62320;51.520;6.818;2023-11-21T12:18:08;101262.78;;;10.09;100.00
4528;BME280;62320;51.520;6.818;2023-11-21T12:28:09;101281.69;;;10.03;100.00
4528;BME280;62320;51.520;6.818;2023-11-21T12:38:12;101290.13;;;9.90;100.00
4528;BME280;62320;51.520;6.818;2023-11-21T12:48:13;101314.34;;;10.00;100.00
4528;BME280;62320;51.520;6.818;2023-11-21T12:58:16;101317.75;;;9.97;100.00
4528;BME280;62320;51.520;6.818;2023-11-21T13:08:23;101320.28;;;9.90;100.00
4528;BME280;62320;51.520;6.818;2023-11-21T13:18:27;101335.88;;;9.99;100.00
4528;BME280;62320;51.520;6.818;2023-11-21T13:28:28;101341.81;;;9.92;100.00
4528;BME280;62320;51.520;6.818;2023-11-21T13:38:34;101353.00;;;9.89;100.00
4528;BME280;62320;51.520;6.818;2023-11-21T13:48:37;101363.50;;;10.04;100.00
4528;BME280;62320;51.520;6.818;2023-11-21T13:58:50;101366.84;;;9.94;100.00
4528;BME280;62320;51.520;6.818;2023-11-21T14:08:53;101377.13;;;9.93;100.00
4528;BME280;62320;51.520;6.818;2023-11-21T14:18:57;101383.22;;;9.98;100.00
4528;BME280;62320;51.520;6.818;2023-11-21T14:29:12;101391.91;;;10.01;100.00
4528;BME280;62320;51.520;6.818;2023-11-21T14:39:16;101410.69;;;9.90;100.00
4528;BME280;62320;51.520;6.818;2023-11-21T14:49:24;101434.69;;;9.83;100.00
4528;BME280;62320;51.520;6.818;2023-11-21T14:59:28;101451.66;;;9.64;100.00
4528;BME280;62320;51.520;6.818;2023-11-21T15:09:30;101466.44;;;9.74;100.00
4528;BME280;62320;51.520;6.818;2023-11-21T15:19:35;101481.63;;;9.55;100.00
4528;BME280;62320;51.520;6.818;2023-11-21T15:29:38;101491.69;;;9.38;100.00
4528;BME280;62320;51.520;6.818;2023-11-21T15:39:40;101503.72;;;9.39;100.00
4528;BME280;62320;51.520;6.818;2023-11-21T15:49:41;101532.63;;;9.18;100.00
4528;BME280;62320;51.520;6.818;2023-11-21T15:59:43;101551.50;;;9.16;100.00
4528;BME280;62320;51.520;6.818;2023-11-21T16:09:46;101568.75;;;9.18;100.00
4528;BME280;62320;51.520;6.818;2023-11-21T16:19:47;101609.22;;;8.78;100.00
4528;BME280;62320;51.520;6.818;2023-11-21T16:29:49;101631.91;;;8.94;100.00
4528;BME280;62320;51.520;6.818;2023-11-21T16:39:50;101654.25;;;8.54;100.00
4528;BME280;62320;51.520;6.818;2023-11-21T16:49:53;101667.53;;;8.34;100.00
4528;BME280;62320;51.520;6.818;2023-11-21T16:59:54;101703.19;;;8.53;100.00
4528;BME280;62320;51.520;6.818;2023-11-21T17:09:56;101721.38;;;8.25;100.00
4528;BME280;62320;51.520;6.818;2023-11-21T17:19:58;101738.94;;;8.07;100.00
4528;BME280;62320;51.520;6.818;2023-11-21T17:30:01;101761.66;;;8.21;100.00
4528;BME280;62320;51.520;6.818;2023-11-21T17:40:03;101762.84;;;8.01;100.00
4528;BME280;62320;51.520;6.818;2023-11-21T17:50:08;101797.25;;;7.72;100.00
4528;BME280;62320;51.520;6.818;2023-11-21T18:00:12;101814.03;;;7.89;100.00
4528;BME280;62320;51.520;6.818;2023-11-21T18:10:14;101826.72;;;7.52;100.00
4528;BME280;62320;51.520;6.818;2023-11-21T18:20:17;101846.69;;;7.60;100.00
4528;BME280;62320;51.520;6.818;2023-11-21T18:30:18;101861.06;;;7.54;100.00
4528;BME280;62320;51.520;6.818;2023-11-21T18:40:20;101859.66;;;7.35;100.00
4528;BME280;62320;51.520;6.818;2023-11-21T18:50:22;101870.63;;;7.58;100.00
4528;BME280;62320;51.520;6.818;2023-11-21T19:00:24;101889.47;;;7.57;100.00
4528;BME280;62320;51.520;6.818;2023-11-21T19:10:26;101891.53;;;7.13;100.00
4528;BME280;62320;51.520;6.818;2023-11-21T19:20:30;101903.53;;;7.40;100.00
4528;BME280;62320;51.520;6.818;2023-11-21T19:30:33;101915.38;;;7.35;100.00
4528;BME280;62320;51.520;6.818;2023-11-21T19:40:38;101922.97;;;7.32;100.00
4528;BME280;62320;51.520;6.818;2023-11-21T19:50:41;101946.44;;;7.14;100.00
4528;BME280;62320;51.520;6.818;2023-11-21T20:00:46;101952.00;;;7.28;100.00
4528;BME280;62320;51.520;6.818;2023-11-21T20:10:48;101973.75;;;7.10;100.00
4528;BME280;62320;51.520;6.818;2023-11-21T20:20:50;101989.72;;;7.02;100.00
4528;BME280;62320;51.520;6.818;2023-11-21T20:30:51;102006.13;;;7.04;100.00
4528;BME280;62320;51.520;6.818;2023-11-21T20:40:55;102035.00;;;6.97;100.00
4528;BME280;62320;51.520;6.818;2023-11-21T20:50:57;102044.91;;;6.86;100.00
4528;BME280;62320;51.520;6.818;2023-11-21T21:00:58;102032.22;;;7.16;100.00
4528;BME280;62320;51.520;6.818;2023-11-21T21:11:00;102038.09;;;7.12;100.00
4528;BME280;62320;51.520;6.818;2023-11-21T21:21:01;102043.97;;;7.08;100.00
4528;BME280;62320;51.520;6.818;2023-11-21T21:31:03;102048.34;;;6.87;100.00
4528;BME280;62320;51.520;6.818;2023-11-21T21:41:08;102086.75;;;6.59;100.00
4528;BME280;62320;51.520;6.818;2023-11-21T21:51:16;102109.69;;;6.54;100.00
4528;BME280;62320;51.520;6.818;2023-11-21T22:01:18;102113.13;;;6.32;100.00
4528;BME280;62320;51.520;6.818;2023-11-21T22:11:20;102115.91;;;6.16;100.00
4528;BME280;62320;51.520;6.818;2023-11-21T22:21:22;102124.78;;;6.45;100.00
4528;BME280;62320;51.520;6.818;2023-11-21T22:31:25;102127.25;;;6.43;100.00
4528;BME280;62320;51.520;6.818;2023-11-21T22:41:27;102135.28;;;6.51;100.00
4528;BME280;62320;51.520;6.818;2023-11-21T22:51:28;102165.03;;;6.24;100.00
4528;BME280;62320;51.520;6.818;2023-11-21T23:01:30;102170.47;;;6.31;100.00
4528;BME280;62320;51.520;6.818;2023-11-21T23:11:31;102184.88;;;6.28;100.00
4528;BME280;62320;51.520;6.818;2023-11-21T23:21:33;102189.50;;;6.36;100.00
4528;BME280;62320;51.520;6.818;2023-11-21T23:31:36;102205.06;;;6.19;100.00
4528;BME280;62320;51.520;6.818;2023-11-21T23:41:37;102206.63;;;6.15;100.00
4528;BME280;62320;51.520;6.818;2023-11-21T23:51:38;102205.38;;;6.06;100.00
